Last 24 Hour KALB Observations

Last 24 hours of surface weather observations from the Albany County Airport. Observations taken by the National Weather Service.


		
KALB 210851Z 13003KT 10SM SCT250 18/12 A3012 RMK AO2 SLP197 T01830122 52005=
KALB 210951Z 13003KT 10SM FEW035 FEW200 BKN250 18/12 A3012 RMK AO2 SLP198
 T01780122=
KALB 211051Z 00000KT 10SM FEW035 FEW200 BKN250 19/13 A3012 RMK AO2 SLP198
 T01940133=
KALB 211151Z VRB03KT 10SM FEW200 BKN250 21/14 A3012 RMK AO2 SLP199 T02110139
 10211 20178 52002=
KALB 211251Z VRB05KT 10SM FEW032 SCT220 BKN270 22/14 A3013 RMK AO2 SLP200
 T02220144=
KALB 211351Z 17003KT 10SM SCT031 BKN220 BKN270 23/14 A3013 RMK AO2 SLP201
 T02330144=
KALB 211451Z 16008KT 110V190 10SM BKN037 BKN220 BKN270 26/13 A3012 RMK AO2
 SLP197 T02560133 58002=
KALB 211551Z 15007KT 10SM SCT042 BKN220 BKN270 25/13 A3011 RMK AO2 SLP195 SCT V
 BKN T02500128=
KALB 211651Z VRB05G14KT 10SM FEW045 SCT250 SCT270 27/12 A3009 RMK AO2 SLP189
 T02670117=
KALB 211651Z COR 16005G14KT 10SM FEW045 SCT250 SCT270 27/12 A3009 RMK AO2
 SLP189 T02670117=
KALB 211751Z 14009KT 10SM FEW050 FEW250 SCT270 27/11 A3006 RMK AO2 SLP179
 T02720106 10283 20211 58019=
KALB 211851Z 13006KT 10SM FEW060 FEW250 SCT270 28/11 A3005 RMK AO2 SLP174
 T02830106=
KALB 211951Z 17010G15KT 10SM FEW060 FEW220 BKN270 29/09 A3003 RMK AO2 SLP169
 T02890094=
KALB 212051Z 14009KT 10SM FEW200 BKN270 28/08 A3002 RMK AO2 SLP166 T02830083
 56013=
KALB 212151Z 18009KT 10SM FEW200 BKN270 28/09 A3002 RMK AO2 SLP164 T02780094=
KALB 212251Z 13009KT 10SM FEW220 BKN260 27/11 A3003 RMK AO2 SLP168 T02670111=
KALB 212351Z 14005KT 10SM FEW048 FEW090 FEW210 BKN260 25/12 A3004 RMK AO2
 SLP171 T02500117 10289 20250 53005=
KALB 220051Z 12004KT 10SM FEW050 FEW090 FEW210 BKN260 24/12 A3004 RMK AO2
 SLP172 T02390117=
KALB 220151Z 13006KT 10SM FEW050 FEW210 BKN260 23/13 A3004 RMK AO2 SLP171
 T02330128=
KALB 220251Z 08004KT 10SM FEW050 OVC260 22/13 A3003 RMK AO2 SLP167 T02220128
 58003=
KALB 220351Z 05006KT 10SM BKN065 BKN150 OVC260 22/13 A3001 RMK AO2 SLP162 OCNL
 BINOVC T02170133=
KALB 220451Z 05006KT 10SM BKN050 BKN065 OVC150 22/13 A3000 RMK AO2 SLP157
 T02170133 402890178=
KALB 220551Z 05006KT 10SM SCT037 OVC050 22/12 A2999 RMK AO2 SLP152 T02170122
 10250 20211 56015=
KALB 220651Z 02003KT 10SM -RA BKN038 OVC050 20/14 A2998 RMK AO2 RAB22 SLP149
 P0001 T02000139=
KALB 220751Z 04003KT 7SM -RA BKN030 BKN041 OVC050 18/14 A2997 RMK AO2 SLP146
 P0006 T01830144=
KALB 220804Z 00000KT 7SM -RA BKN027 BKN041 OVC050 18/14 A2996 RMK AO2 P0002
 T01830144=
KALB 220804Z 00000KT 7SM -RA BKN027 BKN041 OVC050 18/14 A2996=
KALB 220851Z 03004KT 7SM -RA BKN027 BKN050 OVC060 18/15 A2994 RMK AO2 SLP136
 BKN027 V SCT P0006 60013 T01780150 58016=